Time;durP1;ratioP1;P1;durP2;ratioP2;P2;SDS_P1;SDS_P2;PMS_P1;PMS_P2;Temp;Humidity;BMP_temperature;BMP_pressure;BME280_temperature;BME280_humidity;BME280_pressure;Samples;Min_cycle;Max_cycle;Signal;HPM_P1;HPM_P2
2022/04/13 00:00:09;;;;;;;2.17;1.97;;;;;;;11.03;48.95;98651.44;5133338;27;42615;-78
2022/04/13 00:02:40;;;;;;;2.70;1.53;;;;;;;11.06;48.62;98651.25;5131821;27;43205;-76
2022/04/13 00:05:09;;;;;;;2.03;1.70;;;;;;;11.08;48.56;98657.28;5132068;27;42131;-77
2022/04/13 00:07:37;;;;;;;2.60;1.90;;;;;;;11.09;48.38;98651.03;5114880;27;39144;-76
2022/04/13 00:10:07;;;;;;;1.83;1.60;;;;;;;11.09;48.82;98642.25;5114677;27;40886;-77
2022/04/13 00:12:35;;;;;;;2.30;1.73;;;;;;;11.16;48.69;98660.25;5096248;28;45018;-76
2022/04/13 00:15:05;;;;;;;4.00;2.47;;;;;;;11.19;48.91;98653.06;5094307;28;42159;-77
2022/04/13 00:17:36;;;;;;;2.23;1.60;;;;;;;11.23;49.32;98654.56;5128474;27;39968;-77
2022/04/13 00:20:05;;;;;;;2.63;1.90;;;;;;;11.24;49.44;98649.16;5110394;28;41473;-75
2022/04/13 00:22:32;;;;;;;2.57;1.83;;;;;;;11.23;49.12;98651.91;5093510;28;43324;-75
2022/04/13 00:25:00;;;;;;;2.67;1.87;;;;;;;11.27;48.87;98653.38;5094060;28;41652;-77
2022/04/13 00:27:27;;;;;;;3.80;2.20;;;;;;;11.32;49.08;98659.22;5093775;28;38802;-76
2022/04/13 00:29:55;;;;;;;4.37;2.00;;;;;;;11.36;48.95;98660.72;5111942;28;41728;-77
2022/04/13 00:32:22;;;;;;;2.10;1.90;;;;;;;11.39;48.82;98663.97;5111185;28;43530;-76
2022/04/13 00:34:51;;;;;;;2.43;1.70;;;;;;;11.32;48.65;98648.59;5110767;28;41273;-76
2022/04/13 00:37:18;;;;;;;2.53;1.83;;;;;;;11.42;48.33;98665.56;5111112;28;39495;-77
2022/04/13 00:39:46;;;;;;;1.50;1.40;;;;;;;11.45;48.22;98670.69;5111856;28;42506;-76
2022/04/13 00:42:16;;;;;;;1.53;1.40;;;;;;;11.42;48.09;98665.56;5125123;27;44101;-75
2022/04/13 00:44:44;;;;;;;1.83;1.50;;;;;;;11.46;48.34;98667.06;5110937;28;43462;-77
2022/04/13 00:47:12;;;;;;;1.57;1.40;;;;;;;11.48;48.10;98662.53;5112087;28;39998;-77
2022/04/13 00:49:40;;;;;;;1.13;1.03;;;;;;;11.50;48.23;98673.84;5110721;28;41705;-76
2022/04/13 00:52:13;;;;;;;1.30;1.10;;;;;;;11.50;48.01;98672.03;5110788;28;41770;-76
2022/04/13 00:54:43;;;;;;;2.50;1.50;;;;;;;11.51;48.04;98670.25;5127325;27;42727;-76
2022/04/13 00:57:11;;;;;;;1.27;1.17;;;;;;;11.52;48.18;98659.53;5110527;28;38829;-75
2022/04/13 00:59:40;;;;;;;1.47;1.37;;;;;;;11.53;48.01;98653.28;5093535;28;40626;-77
2022/04/13 01:02:08;;;;;;;1.50;1.40;;;;;;;11.55;47.83;98658.47;5110576;28;43516;-77
2022/04/13 01:04:37;;;;;;;1.87;1.50;;;;;;;11.48;47.93;98638.66;5110428;28;41964;-75
2022/04/13 01:07:09;;;;;;;2.13;1.23;;;;;;;11.55;47.91;98650.50;5092581;28;38890;-76
2022/04/13 01:09:38;;;;;;;1.67;1.40;;;;;;;11.55;47.79;98655.81;5110201;28;40684;-76
2022/04/13 01:12:09;;;;;;;1.93;1.20;;;;;;;11.55;47.62;98655.81;5093315;28;41760;-77
2022/04/13 01:14:37;;;;;;;2.63;1.27;;;;;;;11.51;47.96;98659.63;5109529;28;42230;-77
2022/04/13 01:17:07;;;;;;;2.23;1.43;;;;;;;11.52;48.29;98661.31;5095413;28;39365;-76
2022/04/13 01:19:35;;;;;;;1.50;1.40;;;;;;;11.48;48.05;98662.53;5110083;28;42413;-76
2022/04/13 01:22:16;;;;;;;1.70;1.50;;;;;;;11.44;48.50;98666.31;5110038;28;41818;-76
2022/04/13 01:24:45;;;;;;;1.63;1.50;;;;;;;11.39;48.28;98671.09;5110314;28;42295;-77
2022/04/13 01:27:15;;;;;;;3.10;1.97;;;;;;;11.35;48.17;98669.63;5110092;28;40277;-78
2022/04/13 01:29:52;;;;;;;1.97;1.60;;;;;;;11.22;48.45;98659.00;5110580;28;41661;-77
2022/04/13 01:32:21;;;;;;;2.47;1.63;;;;;;;11.24;48.56;98673.00;5107400;28;43671;-77
2022/04/13 01:34:49;;;;;;;1.80;1.30;;;;;;;11.20;48.69;98665.34;5110215;27;40981;-77
2022/04/13 01:37:19;;;;;;;2.30;1.70;;;;;;;11.16;48.75;98681.47;5110158;28;39999;-76
2022/04/13 01:39:47;;;;;;;1.50;1.40;;;;;;;11.13;49.43;98672.84;5109490;28;42933;-77
2022/04/13 01:42:15;;;;;;;3.50;1.80;;;;;;;11.11;50.47;98667.69;5110231;28;43802;-76
2022/04/13 01:44:42;;;;;;;1.97;1.77;;;;;;;11.09;50.52;98659.00;5092700;28;41205;-76
2022/04/13 01:47:10;;;;;;;1.90;1.53;;;;;;;11.07;50.27;98666.19;5101878;28;38791;-77
2022/04/13 01:49:38;;;;;;;1.90;1.63;;;;;;;11.06;50.34;98664.47;5072720;28;41445;-76
2022/04/13 01:52:08;;;;;;;1.70;1.60;;;;;;;11.04;50.80;98661.09;5072651;28;42750;-76
2022/04/13 01:54:37;;;;;;;2.43;1.70;;;;;;;11.02;50.73;98665.63;5072594;28;40950;-75
2022/04/13 01:57:05;;;;;;;1.97;1.60;;;;;;;10.98;50.93;98666.81;5091083;28;39018;-76
2022/04/13 01:59:32;;;;;;;2.07;1.87;;;;;;;10.98;51.50;98669.47;5111148;28;41820;-77
2022/04/13 02:02:04;;;;;;;2.30;1.90;;;;;;;10.97;51.57;98675.72;5110053;28;42764;-77
2022/04/13 02:04:34;;;;;;;2.00;1.73;;;;;;;10.84;51.63;98664.22;5092607;28;43450;-76
2022/04/13 02:07:02;;;;;;;3.07;1.93;;;;;;;10.83;52.28;98657.25;5109139;28;40867;-76
2022/04/13 02:09:29;;;;;;;2.03;1.83;;;;;;;10.92;52.19;98677.81;5109471;28;40734;-75
2022/04/13 02:11:58;;;;;;;2.43;2.23;;;;;;;10.91;52.05;98680.56;5109653;28;43747;-77
2022/04/13 02:14:26;;;;;;;2.50;2.00;;;;;;;10.88;51.89;98680.78;5092249;28;42217;-75
2022/04/13 02:16:53;;;;;;;1.77;1.50;;;;;;;10.86;51.41;98683.53;5109858;28;38812;-77
2022/04/13 02:19:21;;;;;;;2.37;2.03;;;;;;;10.81;51.20;98680.31;5110632;28;42699;-76
2022/04/13 02:21:49;;;;;;;1.27;1.17;;;;;;;10.76;51.10;98693.00;5113150;28;42569;-76
2022/04/13 02:24:16;;;;;;;2.23;1.70;;;;;;;10.70;51.23;98690.78;5112986;28;41522;-77
2022/04/13 02:26:44;;;;;;;1.97;1.47;;;;;;;10.62;51.25;98685.16;5113196;28;40218;-77
2022/04/13 02:29:13;;;;;;;2.33;1.87;;;;;;;10.58;51.07;98688.94;5112356;28;42130;-77
2022/04/13 02:31:40;;;;;;;1.67;1.30;;;;;;;10.54;51.34;98682.13;5114222;28;43825;-76
2022/04/13 02:34:08;;;;;;;1.60;1.23;;;;;;;10.50;51.34;98681.50;5130082;27;42921;-76
2022/04/13 02:36:35;;;;;;;3.17;1.57;;;;;;;10.38;51.60;98667.25;5096050;28;39130;-75
2022/04/13 02:39:03;;;;;;;1.50;1.27;;;;;;;10.41;51.36;98674.97;5113988;28;41682;-77
2022/04/13 02:41:31;;;;;;;3.73;1.80;;;;;;;10.40;51.64;98680.38;5112991;28;43730;-78
2022/04/13 02:43:59;;;;;;;2.17;1.77;;;;;;;10.36;51.96;98682.38;5095672;28;40831;-78
2022/04/13 02:46:28;;;;;;;2.40;1.73;;;;;;;10.32;52.77;98672.94;5095414;28;39284;-77
2022/04/13 02:48:55;;;;;;;2.17;1.57;;;;;;;10.29;52.39;98683.72;5095219;28;41326;-76
2022/04/13 02:51:23;;;;;;;1.50;1.40;;;;;;;10.17;52.27;98660.66;5095486;28;41741;-75
2022/04/13 02:53:50;;;;;;;2.40;1.90;;;;;;;10.26;52.15;98673.31;5112318;28;42220;-76
2022/04/13 02:56:18;;;;;;;1.90;1.70;;;;;;;10.17;52.41;98668.59;5113772;28;39736;-77
2022/04/13 02:58:46;;;;;;;2.73;2.10;;;;;;;10.23;52.72;98673.53;5112107;28;40937;-78
2022/04/13 03:01:14;;;;;;;4.77;1.93;;;;;;;10.21;52.80;98675.41;5113682;28;43546;-76
2022/04/13 03:03:43;;;;;;;2.87;1.53;;;;;;;10.20;53.58;98673.72;5111536;28;43112;-76
2022/04/13 03:06:11;;;;;;;2.67;1.90;;;;;;;10.17;53.47;98668.59;5112450;28;39915;-76
2022/04/13 03:08:38;;;;;;;2.70;2.00;;;;;;;10.18;53.88;98665.03;5113986;28;40667;-77
2022/04/13 03:11:07;;;;;;;2.23;1.97;;;;;;;10.04;53.71;98642.06;5114952;28;41730;-76
2022/04/13 03:13:34;;;;;;;2.73;1.90;;;;;;;10.17;54.25;98665.94;5116812;27;42235;-77
2022/04/13 03:16:02;;;;;;;2.33;1.93;;;;;;;10.18;54.36;98658.84;5115386;28;40009;-76
2022/04/13 03:18:30;;;;;;;2.77;2.00;;;;;;;10.18;54.56;98659.75;5114767;28;42491;-77
2022/04/13 03:20:59;;;;;;;3.83;2.20;;;;;;;10.17;54.23;98657.16;5114182;28;41742;-76
2022/04/13 03:23:26;;;;;;;3.13;2.23;;;;;;;10.20;53.90;98680.81;5111429;28;42312;-75
2022/04/13 03:25:54;;;;;;;2.20;2.03;;;;;;;10.19;53.52;98677.31;5113641;28;41366;-77
2022/04/13 03:28:23;;;;;;;3.23;2.10;;;;;;;10.17;53.73;98678.31;5111635;28;41673;-76
2022/04/13 03:30:53;;;;;;;2.87;1.77;;;;;;;10.13;54.24;98671.53;5094394;28;42515;-75
2022/04/13 03:33:21;;;;;;;2.90;1.70;;;;;;;10.08;54.35;98677.97;5112746;28;43169;-75
2022/04/13 03:35:49;;;;;;;2.77;1.90;;;;;;;10.02;54.29;98675.69;5113490;28;40011;-78
2022/04/13 03:38:18;;;;;;;3.37;2.53;;;;;;;9.96;54.55;98668.16;5111883;28;41908;-78
2022/04/13 03:40:46;;;;;;;2.47;1.93;;;;;;;9.80;54.15;98658.63;5111618;28;41960;-78
2022/04/13 03:43:13;;;;;;;2.67;2.10;;;;;;;9.87;54.12;98681.97;5093987;28;41359;-76
2022/04/13 03:45:41;;;;;;;3.07;2.20;;;;;;;9.83;55.35;98669.03;5113017;28;39878;-75
2022/04/13 03:48:09;;;;;;;3.97;2.37;;;;;;;9.77;55.37;98675.53;5112845;28;42670;-75
2022/04/13 03:50:36;;;;;;;2.20;2.00;;;;;;;9.73;54.91;98682.81;5093779;28;42265;-76
2022/04/13 03:53:04;;;;;;;2.53;1.63;;;;;;;9.73;54.68;98682.81;5112944;28;43234;-77
2022/04/13 03:55:33;;;;;;;3.30;2.13;;;;;;;9.71;54.81;98689.16;5112584;28;40902;-76
2022/04/13 03:58:01;;;;;;;3.03;2.10;;;;;;;9.67;54.46;98691.13;5094283;28;40884;-76
2022/04/13 04:00:28;;;;;;;2.53;2.03;;;;;;;9.34;54.28;98645.59;5111296;28;42860;-76
2022/04/13 04:02:56;;;;;;;4.00;2.10;;;;;;;9.64;54.44;98696.59;5089919;28;43570;-78
2022/04/13 04:05:24;;;;;;;3.03;2.47;;;;;;;9.63;54.36;98699.34;5073818;28;40358;-78
2022/04/13 04:07:52;;;;;;;2.43;2.23;;;;;;;9.58;54.77;98696.13;5090402;28;41917;-77
2022/04/13 04:10:20;;;;;;;4.93;2.47;;;;;;;9.60;56.53;98679.22;5097562;28;43750;-75
2022/04/13 04:12:49;;;;;;;2.87;2.47;;;;;;;9.50;56.70;98674.59;5111070;28;42891;-76
2022/04/13 04:15:17;;;;;;;2.27;2.07;;;;;;;9.59;55.84;98688.09;5111960;28;40120;-78
2022/04/13 04:17:44;;;;;;;2.90;2.40;;;;;;;9.61;55.86;98691.50;5093835;28;41041;-76
2022/04/13 04:20:12;;;;;;;2.50;2.30;;;;;;;9.62;55.87;98692.38;5092542;28;41742;-78
2022/04/13 04:22:41;;;;;;;2.80;2.20;;;;;;;9.62;56.11;98693.22;5112277;28;42290;-78
2022/04/13 04:25:10;;;;;;;2.80;2.40;;;;;;;9.62;55.77;98701.16;5111919;28;40076;-77
2022/04/13 04:27:38;;;;;;;3.53;2.33;;;;;;;9.54;55.90;98689.31;5093333;28;40772;-76
2022/04/13 04:30:09;;;;;;;3.40;2.53;;;;;;;9.64;55.57;98709.81;5111310;28;42555;-77
2022/04/13 04:32:37;;;;;;;3.40;2.20;;;;;;;9.66;55.32;98710.56;5094085;28;42642;-77
2022/04/13 04:35:06;;;;;;;2.07;1.73;;;;;;;9.67;55.06;98711.41;5089808;28;38967;-76
2022/04/13 04:37:33;;;;;;;2.87;2.10;;;;;;;9.64;54.77;98703.69;5090380;28;40639;-76
2022/04/13 04:40:01;;;;;;;2.10;1.67;;;;;;;9.60;55.10;98705.66;5088928;27;42034;-77
2022/04/13 04:42:29;;;;;;;2.57;2.10;;;;;;;9.62;55.72;98714.38;5099122;28;41235;-77
2022/04/13 04:44:58;;;;;;;3.63;1.77;;;;;;;9.59;55.84;98713.69;5111652;28;39930;-76
2022/04/13 04:47:27;;;;;;;3.10;2.03;;;;;;;9.54;55.77;98710.47;5110602;28;40698;-76
2022/04/13 04:49:55;;;;;;;3.87;2.33;;;;;;;9.56;56.24;98724.44;5110248;28;43694;-76
2022/04/13 04:52:23;;;;;;;2.10;1.90;;;;;;;9.54;56.31;98723.69;5110663;28;41007;-76
2022/04/13 04:54:50;;;;;;;3.20;2.43;;;;;;;9.48;56.04;98717.00;5093538;28;42271;-76
2022/04/13 04:57:17;;;;;;;3.93;2.83;;;;;;;9.48;56.17;98724.91;5111823;28;41702;-77
2022/04/13 04:59:45;;;;;;;3.33;2.20;;;;;;;9.42;56.02;98717.34;5127589;27;42463;-75
2022/04/13 05:02:12;;;;;;;2.97;1.90;;;;;;;9.48;56.48;98722.28;5111926;28;42246;-76
2022/04/13 05:04:42;;;;;;;3.10;2.43;;;;;;;9.46;56.52;98716.22;5110213;27;38831;-77
2022/04/13 05:07:09;;;;;;;2.40;2.20;;;;;;;9.49;56.62;98726.63;5111904;27;42939;-76
2022/04/13 05:09:37;;;;;;;3.17;2.50;;;;;;;9.39;56.77;98706.97;5110194;28;42354;-76
2022/04/13 05:12:05;;;;;;;3.50;2.47;;;;;;;9.46;57.28;98708.28;5092803;28;41392;-77
2022/04/13 05:14:33;;;;;;;3.03;2.57;;;;;;;9.60;57.78;98721.53;5111555;28;40178;-77
2022/04/13 05:17:01;;;;;;;2.30;2.10;;;;;;;9.53;57.60;98706.13;5110137;28;41750;-78
2022/04/13 05:19:29;;;;;;;1.77;1.67;;;;;;;9.71;57.09;98719.09;5092341;28;42831;-76
2022/04/13 05:21:58;;;;;;;3.50;2.23;;;;;;;9.66;57.46;98705.28;5111512;28;42079;-76
2022/04/13 05:24:26;;;;;;;2.57;2.20;;;;;;;9.86;57.46;98721.75;5109951;28;39667;-77
2022/04/13 05:26:53;;;;;;;3.53;2.33;;;;;;;9.94;56.92;98725.59;5111673;28;41801;-78
2022/04/13 05:29:21;;;;;;;3.37;2.73;;;;;;;10.07;56.91;98725.69;5092995;28;43043;-76
2022/04/13 05:31:49;;;;;;;3.57;2.43;;;;;;;10.19;56.84;98735.53;5110200;28;41213;-78
2022/04/13 05:34:16;;;;;;;2.87;2.30;;;;;;;10.25;56.80;98735.16;5110010;28;38915;-77
2022/04/13 05:36:44;;;;;;;4.20;2.37;;;;;;;10.37;56.94;98741.47;5093272;28;41680;-77
2022/04/13 05:39:13;;;;;;;2.90;2.60;;;;;;;10.38;56.24;98729.94;5105700;28;41716;-77
2022/04/13 05:41:41;;;;;;;3.43;3.00;;;;;;;10.60;56.19;98756.75;5079485;28;43989;-76
2022/04/13 05:44:09;;;;;;;3.40;2.73;;;;;;;10.69;56.12;98756.13;5091738;28;39476;-77
2022/04/13 05:46:37;;;;;;;3.90;3.07;;;;;;;10.69;55.75;98742.03;5107578;28;42665;-78
2022/04/13 05:49:04;;;;;;;6.17;3.37;;;;;;;10.97;55.62;98765.81;5090894;28;41815;-78
2022/04/13 05:51:32;;;;;;;3.77;3.03;;;;;;;11.12;55.75;98775.41;5092699;28;41734;-77
2022/04/13 05:53:59;;;;;;;4.73;2.83;;;;;;;11.28;55.36;98769.06;5111900;27;39462;-75
2022/04/13 05:56:29;;;;;;;4.03;2.97;;;;;;;11.46;54.97;98775.78;5103844;28;42666;-78
2022/04/13 05:58:57;;;;;;;5.23;2.73;;;;;;;11.61;54.51;98782.72;5109270;28;43763;-78
2022/04/13 06:01:24;;;;;;;3.10;2.70;;;;;;;11.79;54.20;98786.78;5095347;28;42296;-76
2022/04/13 06:03:52;;;;;;;3.30;2.23;;;;;;;11.93;53.80;98777.88;5095448;28;38338;-76
2022/04/13 06:06:19;;;;;;;2.60;2.40;;;;;;;12.29;53.15;98794.84;5111830;28;40666;-77
2022/04/13 06:08:47;;;;;;;2.50;2.27;;;;;;;12.45;53.09;98768.91;5112055;28;41515;-77
2022/04/13 06:11:15;;;;;;;4.43;2.63;;;;;;;12.70;52.74;98794.56;5098757;28;42244;-77
2022/04/13 06:13:43;;;;;;;6.30;3.20;;;;;;;12.81;52.48;98799.94;5111237;28;40205;-81
2022/04/13 06:16:11;;;;;;;4.63;3.07;;;;;;;12.90;52.64;98799.28;5109428;28;42220;-79
2022/04/13 06:18:39;;;;;;;3.57;2.80;;;;;;;12.91;52.41;98795.66;5111026;28;41488;-79
2022/04/13 06:21:08;;;;;;;3.50;2.70;;;;;;;13.16;51.87;98805.38;5100315;28;42190;-79
2022/04/13 06:23:35;;;;;;;3.40;3.00;;;;;;;13.38;51.53;98812.59;5112732;28;39210;-80
2022/04/13 06:26:03;;;;;;;4.20;2.80;;;;;;;13.53;51.07;98814.13;5111646;28;42442;-77
2022/04/13 06:28:30;;;;;;;3.80;3.03;;;;;;;13.69;51.08;98811.16;5094635;28;43382;-79
2022/04/13 06:30:59;;;;;;;3.30;2.87;;;;;;;13.70;50.74;98800.41;5111738;28;43243;-79
2022/04/13 06:33:27;;;;;;;3.77;2.90;;;;;;;13.94;50.58;98816.31;5112635;28;40860;-80
2022/04/13 06:35:55;;;;;;;5.73;3.00;;;;;;;14.08;50.65;98823.25;5109537;28;41739;-78
2022/04/13 06:38:22;;;;;;;3.03;2.73;;;;;;;14.19;50.23;98821.44;5111867;28;43875;-78
2022/04/13 06:40:50;;;;;;;3.57;2.97;;;;;;;14.36;50.21;98828.09;5111708;28;42413;-78
2022/04/13 06:43:17;;;;;;;3.53;2.90;;;;;;;14.52;49.87;98828.63;5094842;28;39151;-81
2022/04/13 06:45:45;;;;;;;3.77;3.37;;;;;;;14.68;49.80;98833.59;5093791;28;40823;-80
2022/04/13 06:48:14;;;;;;;4.10;3.30;;;;;;;14.52;49.40;98785.97;5094654;28;41986;-79
2022/04/13 06:50:41;;;;;;;3.77;3.10;;;;;;;15.02;48.78;98845.91;5093767;28;42267;-77
2022/04/13 06:53:09;;;;;;;5.67;3.10;;;;;;;15.22;48.73;98843.44;5094333;28;40962;-80
2022/04/13 06:55:39;;;;;;;4.73;3.40;;;;;;;15.41;48.17;98844.47;5112093;28;41751;-80
2022/04/13 06:58:07;;;;;;;3.00;2.70;;;;;;;15.63;47.64;98848.06;5111285;28;43783;-79
2022/04/13 07:00:34;;;;;;;6.67;3.03;;;;;;;15.84;47.58;98850.75;5112002;27;43064;-81
2022/04/13 07:03:02;;;;;;;3.53;2.63;;;;;;;16.07;47.05;98858.50;5113119;27;40986;-82
2022/04/13 07:05:31;;;;;;;3.67;3.00;;;;;;;16.39;46.03;98862.94;5109952;27;41964;-80
2022/04/13 07:08:00;;;;;;;6.00;3.33;;;;;;;16.74;45.70;98863.44;5110873;28;42858;-80
2022/04/13 07:10:28;;;;;;;5.50;3.30;;;;;;;16.99;44.23;98850.56;5110750;28;42094;-79
2022/04/13 07:12:56;;;;;;;3.93;3.07;;;;;;;17.30;44.17;98843.31;5094261;28;40548;-77
2022/04/13 07:15:24;;;;;;;6.20;3.07;;;;;;;17.80;43.38;98884.28;5093022;28;40717;-76
2022/04/13 07:17:52;;;;;;;6.03;3.30;;;;;;;18.04;41.85;98898.09;5111490;28;43690;-77
2022/04/13 07:20:20;;;;;;;5.57;3.13;;;;;;;18.41;41.51;98902.69;5109943;28;43094;-76
2022/04/13 07:22:50;;;;;;;4.23;3.27;;;;;;;18.75;41.11;98903.91;5111401;28;40703;-78
2022/04/13 07:25:19;;;;;;;4.63;2.97;;;;;;;19.04;40.22;98913.69;5093096;28;41937;-77
2022/04/13 07:27:47;;;;;;;4.17;3.00;;;;;;;19.27;38.22;98920.38;5110970;28;43526;-77
2022/04/13 07:30:16;;;;;;;3.90;3.13;;;;;;;19.62;39.14;98919.63;5109933;28;42272;-78
2022/04/13 07:32:45;;;;;;;4.37;2.93;;;;;;;20.15;38.62;98927.72;5111581;28;38819;-77
2022/04/13 07:35:13;;;;;;;4.90;3.37;;;;;;;20.65;37.53;98937.88;5111566;28;42568;-78
2022/04/13 07:37:40;;;;;;;6.43;3.20;;;;;;;21.06;35.76;98942.50;5093060;28;42045;-80
2022/04/13 07:40:12;;;;;;;4.17;3.17;;;;;;;21.43;35.64;98920.66;5090223;28;42248;-79
2022/04/13 07:42:40;;;;;;;5.77;4.03;;;;;;;22.10;34.15;98958.44;5085644;28;39329;-79
2022/04/13 07:45:09;;;;;;;4.10;3.10;;;;;;;22.49;33.29;98956.78;5092767;28;40791;-78
2022/04/13 07:47:36;;;;;;;4.53;3.53;;;;;;;22.66;33.05;98963.00;5110187;28;43748;-77
2022/04/13 07:50:04;;;;;;;4.47;3.40;;;;;;;22.72;33.97;98950.69;5109990;28;42388;-77
2022/04/13 07:52:34;;;;;;;5.53;3.40;;;;;;;22.64;33.80;98904.78;5093592;28;38802;-77
2022/04/13 07:55:01;;;;;;;4.43;3.50;;;;;;;23.19;32.30;98965.13;5108737;28;42432;-76
2022/04/13 07:57:30;;;;;;;11.30;3.63;;;;;;;23.46;32.45;98961.16;5110146;28;43443;-77
2022/04/13 07:59:58;;;;;;;5.37;3.20;;;;;;;23.79;32.45;98956.47;5109732;28;42063;-78
2022/04/13 08:02:25;;;;;;;4.90;3.57;;;;;;;24.23;30.27;98970.22;5092944;28;40098;-79
2022/04/13 08:04:53;;;;;;;4.53;3.37;;;;;;;24.75;30.38;98974.06;5108939;28;41496;-78
2022/04/13 08:07:21;;;;;;;6.30;3.97;;;;;;;25.28;29.91;98973.88;5110335;28;42905;-78
2022/04/13 08:09:49;;;;;;;3.97;3.40;;;;;;;26.10;28.72;98971.81;5109672;28;43216;-77
2022/04/13 08:12:17;;;;;;;4.80;3.77;;;;;;;26.96;27.83;98988.13;5109892;28;39934;-78
2022/04/13 08:14:46;;;;;;;6.57;3.70;;;;;;;27.51;26.28;99001.69;5110805;28;42367;-77
2022/04/13 08:17:14;;;;;;;4.50;3.40;;;;;;;27.85;26.54;98989.97;5092899;28;41547;-78
2022/04/13 08:19:42;;;;;;;4.33;3.83;;;;;;;28.01;24.64;99007.84;5109073;28;41009;-81
2022/04/13 08:22:10;;;;;;;5.30;3.97;;;;;;;28.41;23.72;99005.25;5092937;28;38816;-79
2022/04/13 08:24:38;;;;;;;5.37;4.07;;;;;;;29.06;24.08;99006.38;5084426;28;41995;-77
2022/04/13 08:27:09;;;;;;;4.47;3.80;;;;;;;29.69;22.32;99017.63;5092426;28;42355;-79
2022/04/13 08:29:37;;;;;;;5.37;3.97;;;;;;;30.03;21.80;99022.81;5109041;28;42364;-79
2022/04/13 08:32:07;;;;;;;5.23;3.90;;;;;;;30.55;21.99;99009.91;5110097;28;40194;-79
2022/04/13 08:34:35;;;;;;;4.70;3.80;;;;;;;31.07;22.12;99014.97;5109604;28;41616;-80
2022/04/13 08:37:02;;;;;;;5.30;3.97;;;;;;;31.54;21.65;99015.38;5093219;28;41748;-80
2022/04/13 08:39:30;;;;;;;5.10;4.20;;;;;;;31.85;20.84;99013.63;5109429;28;42681;-83
2022/04/13 08:42:00;;;;;;;6.13;3.90;;;;;;;32.01;20.37;99026.69;5111538;28;41101;-79
2022/04/13 08:44:36;;;;;;;6.93;4.33;;;;;;;32.01;20.77;99013.00;5091171;28;40757;-81
2022/04/13 08:47:12;;;;;;;6.97;4.77;;;;;;;32.00;20.41;99019.53;5109941;28;42419;-82
2022/04/13 08:49:41;;;;;;;5.60;4.17;;;;;;;32.30;20.65;99009.47;5108982;28;43248;-80
2022/04/13 08:52:10;;;;;;;5.60;4.80;;;;;;;32.54;20.07;99009.53;5109612;28;39974;-81
2022/04/13 08:54:53;;;;;;;5.23;4.27;;;;;;;32.63;19.26;99024.63;5101480;28;42926;-82
2022/04/13 08:57:23;;;;;;;5.50;5.00;;;;;;;32.31;19.96;98977.41;5091562;28;43758;-81
2022/04/13 09:00:02;;;;;;;4.63;4.23;;;;;;;32.71;20.19;99008.69;5109289;28;42641;-81
2022/04/13 09:02:56;;;;;;;6.40;4.70;;;;;;;32.87;18.68;99009.06;5110321;28;38896;-83
2022/04/13 09:05:25;;;;;;;7.07;4.60;;;;;;;33.13;19.17;99008.63;5092238;28;41888;-82
2022/04/13 09:08:05;;;;;;;5.83;4.03;;;;;;;33.26;19.41;99013.09;5109924;28;42817;-83
2022/04/13 09:10:33;;;;;;;5.47;4.40;;;;;;;33.09;19.16;99018.41;5109343;28;42636;-82
2022/04/13 09:13:02;;;;;;;5.77;4.10;;;;;;;33.19;19.63;99005.75;5109602;28;41000;-83
2022/04/13 09:15:30;;;;;;;11.57;5.30;;;;;;;33.35;19.60;99011.66;5108980;28;42785;-82
2022/04/13 09:18:01;;;;;;;5.53;4.40;;;;;;;33.21;19.09;99008.28;5109727;28;44111;-81
2022/04/13 09:20:29;;;;;;;5.63;4.60;;;;;;;32.92;20.15;98999.03;5091601;28;41242;-84
2022/04/13 09:22:59;;;;;;;5.80;4.17;;;;;;;32.51;19.85;98990.84;5108996;28;39763;-82
2022/04/13 09:25:28;;;;;;;4.30;3.90;;;;;;;32.12;20.42;98995.78;5108402;28;41039;-81
2022/04/13 09:27:57;;;;;;;6.00;4.00;;;;;;;32.01;20.75;98993.81;5091764;28;41795;-82
2022/04/13 09:30:25;;;;;;;5.97;4.43;;;;;;;32.00;20.12;99003.94;5091938;28;41397;-80
2022/04/13 09:32:52;;;;;;;4.90;3.90;;;;;;;31.95;20.23;98990.09;5109423;28;40744;-78
2022/04/13 09:35:22;;;;;;;7.70;4.50;;;;;;;32.37;20.05;98999.25;5108852;28;40529;-83
2022/04/13 09:37:50;;;;;;;6.17;3.80;;;;;;;32.63;19.70;98998.03;5092526;28;42763;-84
2022/04/13 09:40:36;;;;;;;5.03;3.90;;;;;;;32.63;19.82;98997.19;5108846;28;41518;-83
2022/04/13 09:43:09;;;;;;;5.30;4.13;;;;;;;32.45;19.89;98979.72;5092660;28;38985;-83
2022/04/13 09:45:40;;;;;;;8.60;4.70;;;;;;;32.68;20.23;98987.16;5091201;28;41084;-82
2022/04/13 09:48:10;;;;;;;5.83;4.73;;;;;;;32.86;20.08;98994.53;5092383;28;41992;-82
2022/04/13 09:50:40;;;;;;;7.77;4.90;;;;;;;33.03;20.05;98990.00;5108804;28;41083;-82
2022/04/13 09:53:09;;;;;;;7.07;4.33;;;;;;;33.32;19.24;99006.63;5108545;28;40852;-81
2022/04/13 09:55:41;;;;;;;5.23;4.73;;;;;;;33.44;19.46;99002.81;5108346;28;40752;-82
2022/04/13 09:58:10;;;;;;;5.07;4.57;;;;;;;33.10;19.14;98998.97;5106793;28;43041;-83
2022/04/13 10:00:39;;;;;;;5.63;4.43;;;;;;;32.84;19.92;98991.19;5105951;28;41419;-80
2022/04/13 10:03:09;;;;;;;5.00;4.40;;;;;;;32.66;19.79;98982.97;5092302;28;39286;-82
2022/04/13 10:05:37;;;;;;;6.27;4.47;;;;;;;32.71;19.89;98980.38;5109420;28;42819;-81
2022/04/13 10:08:09;;;;;;;8.53;4.37;;;;;;;32.72;20.07;98980.19;5109484;28;42792;-83
2022/04/13 10:10:40;;;;;;;5.43;4.30;;;;;;;32.84;20.04;98977.47;5091622;28;42571;-82
2022/04/13 10:13:07;;;;;;;4.97;4.43;;;;;;;32.92;20.54;98968.88;5106907;28;40845;-82
2022/04/13 10:15:35;;;;;;;7.77;5.67;;;;;;;32.99;20.67;98969.59;5091077;28;41304;-82
2022/04/13 10:18:05;;;;;;;6.67;4.77;;;;;;;33.09;20.44;98975.34;5091982;28;41349;-77
2022/04/13 10:20:43;;;;;;;6.03;4.50;;;;;;;33.36;20.05;98981.22;5107585;28;41000;-80
2022/04/13 10:23:13;;;;;;;5.63;4.07;;;;;;;33.66;19.94;98974.69;5104500;28;40918;-81
2022/04/13 10:25:42;;;;;;;5.70;4.47;;;;;;;34.15;19.49;98962.28;5108124;27;41805;-82
2022/04/13 10:28:12;;;;;;;5.80;4.57;;;;;;;34.53;18.62;98954.22;5108464;28;41733;-80
2022/04/13 10:30:42;;;;;;;5.10;4.60;;;;;;;35.10;19.47;98972.53;5107279;28;40768;-80
2022/04/13 10:33:11;;;;;;;5.57;4.10;;;;;;;35.66;18.78;98968.66;5108720;28;40230;-83
2022/04/13 10:35:41;;;;;;;5.13;4.33;;;;;;;36.08;18.34;98968.13;5108712;28;41800;-81
2022/04/13 10:38:09;;;;;;;6.63;4.67;;;;;;;36.40;17.15;98980.06;5108243;28;42677;-82
2022/04/13 10:40:41;;;;;;;5.72;4.43;;;;;;;36.60;17.19;98963.69;5109230;28;42987;-81
2022/04/13 10:43:10;;;;;;;5.53;4.50;;;;;;;36.86;16.94;98983.28;5108627;28;40572;-81
2022/04/13 10:45:40;;;;;;;8.50;5.23;;;;;;;37.09;16.74;98988.47;5088473;28;40954;-78
2022/04/13 10:48:09;;;;;;;7.17;4.67;;;;;;;37.52;16.93;98986.53;5084367;28;42062;-79
2022/04/13 10:50:42;;;;;;;6.90;4.77;;;;;;;37.42;15.65;98981.78;5093534;28;40982;-78
2022/04/13 10:53:20;;;;;;;6.57;5.27;;;;;;;37.33;16.50;98984.25;5108253;28;40982;-77
2022/04/13 10:55:58;;;;;;;6.63;4.50;;;;;;;37.04;16.79;98963.56;5111156;28;42180;-78
2022/04/13 10:58:35;;;;;;;7.07;4.30;;;;;;;36.85;16.25;98982.44;5125487;27;41641;-83
2022/04/13 11:01:05;;;;;;;5.70;4.50;;;;;;;36.53;15.89;98990.69;5096134;28;42438;-82
2022/04/13 11:03:36;;;;;;;6.80;4.60;;;;;;;36.10;17.18;98979.72;5111912;28;41851;-82
2022/04/13 11:06:06;;;;;;;5.90;4.03;;;;;;;36.06;17.51;98979.41;5094144;28;40728;-83
2022/04/13 11:08:44;;;;;;;7.63;4.60;;;;;;;36.19;17.44;98972.66;5111357;28;43618;-82
2022/04/13 11:11:18;;;;;;;5.40;4.23;;;;;;;36.10;16.74;98985.25;5094256;28;42509;-87
2022/04/13 11:13:50;;;;;;;7.13;4.40;;;;;;;35.95;17.35;98963.84;5094615;28;39368;-84
2022/04/13 11:16:19;;;;;;;6.03;4.30;;;;;;;36.09;17.30;98978.06;5111527;28;41605;-81
2022/04/13 11:19:19;;;;;;;6.53;4.80;;;;;;;36.34;16.98;98983.88;5112888;28;42566;-83
2022/04/13 11:22:16;;;;;;;5.50;4.37;;;;;;;36.56;16.93;98983.81;5100387;28;42904;-80
2022/04/13 11:24:56;;;;;;;5.77;4.33;;;;;;;36.79;15.99;98989.03;5110017;28;39992;-83
2022/04/13 11:27:26;;;;;;;6.77;4.53;;;;;;;36.73;16.22;98981.78;5093477;28;42506;-83
2022/04/13 11:30:01;;;;;;;7.33;4.70;;;;;;;36.58;16.68;98976.97;5111383;28;42705;-80
2022/04/13 11:32:33;;;;;;;5.83;4.70;;;;;;;36.46;16.51;98973.53;5094279;28;41805;-83
2022/04/13 11:35:02;;;;;;;7.27;4.90;;;;;;;36.44;16.47;98978.47;5111594;28;39528;-84
2022/04/13 11:37:44;;;;;;;6.63;4.80;;;;;;;36.57;16.01;98944.94;5094946;28;41232;-82
2022/04/13 11:40:14;;;;;;;6.77;4.67;;;;;;;37.15;17.12;98958.94;5093471;28;44145;-83
2022/04/13 11:42:54;;;;;;;7.40;4.80;;;;;;;37.36;16.57;98964.34;5111244;28;41894;-82